createdAt,value
2018-09-01T00:00:44.723Z,2.57
2018-09-01T00:03:12.925Z,2.43
2018-09-01T00:05:41.150Z,2.70
2018-09-01T00:08:09.400Z,2.43
2018-09-01T00:10:37.650Z,2.50
2018-09-01T00:13:06.014Z,2.53
2018-09-01T00:15:34.411Z,2.63
2018-09-01T00:18:02.612Z,2.43
2018-09-01T00:20:30.834Z,2.27
2018-09-01T00:22:59.030Z,2.67
2018-09-01T00:25:27.246Z,2.60
2018-09-01T00:27:55.463Z,2.10
2018-09-01T00:30:23.702Z,2.50
2018-09-01T00:32:51.963Z,2.67
2018-09-01T00:35:20.199Z,2.83
2018-09-01T00:37:53.903Z,2.90
2018-09-01T00:40:26.632Z,2.60
2018-09-01T00:42:56.153Z,2.90
2018-09-01T00:45:24.430Z,2.97
2018-09-01T00:47:52.764Z,2.77
2018-09-01T00:50:20.974Z,2.90
2018-09-01T00:52:49.202Z,2.60
2018-09-01T00:55:22.750Z,3.10
2018-09-01T00:57:50.998Z,3.07
2018-09-01T01:00:19.204Z,3.10
2018-09-01T01:02:47.479Z,2.73
2018-09-01T01:05:15.700Z,2.93
2018-09-01T01:07:43.928Z,2.63
2018-09-01T01:10:12.141Z,2.80
2018-09-01T01:12:40.380Z,3.10
2018-09-01T01:15:09.030Z,3.27
2018-09-01T01:17:37.281Z,2.80
2018-09-01T01:20:05.518Z,3.70
2018-09-01T01:22:33.746Z,3.00
2018-09-01T01:25:02.051Z,3.87
2018-09-01T01:27:30.333Z,3.40
2018-09-01T01:29:58.572Z,3.23
2018-09-01T01:32:26.807Z,3.63
2018-09-01T01:34:55.007Z,3.30
2018-09-01T01:37:23.228Z,3.73
2018-09-01T01:39:51.484Z,3.20
2018-09-01T01:42:20.591Z,2.93
2018-09-01T01:44:49.092Z,3.50
2018-09-01T01:47:17.360Z,3.40
2018-09-01T01:49:45.672Z,3.47
2018-09-01T01:52:14.013Z,3.40
2018-09-01T01:54:42.225Z,3.30
2018-09-01T01:57:10.482Z,3.27
2018-09-01T01:59:38.708Z,3.43
2018-09-01T02:02:06.992Z,3.50
2018-09-01T02:04:35.217Z,3.00
2018-09-01T02:07:03.443Z,3.37
2018-09-01T02:09:31.684Z,3.10
2018-09-01T02:11:59.927Z,3.13
2018-09-01T02:14:28.154Z,2.60
2018-09-01T02:16:56.450Z,2.90
2018-09-01T02:19:24.683Z,2.70
2018-09-01T02:21:52.922Z,3.00
2018-09-01T02:24:21.145Z,2.83
2018-09-01T02:26:49.408Z,2.90
2018-09-01T02:29:17.616Z,3.20
2018-09-01T02:31:45.830Z,3.07
2018-09-01T02:34:14.048Z,3.43
2018-09-01T02:36:42.257Z,3.60
2018-09-01T02:39:10.495Z,3.00
2018-09-01T02:41:38.704Z,2.57
2018-09-01T02:44:07.050Z,2.97
2018-09-01T02:46:35.276Z,2.97
2018-09-01T02:49:03.852Z,2.57
2018-09-01T02:51:32.082Z,2.80
2018-09-01T02:54:00.403Z,2.43
2018-09-01T02:56:28.598Z,2.90
2018-09-01T02:58:56.844Z,3.10
2018-09-01T03:01:30.536Z,2.67
2018-09-01T03:03:58.758Z,2.43
2018-09-01T03:06:26.978Z,4.60
2018-09-01T03:08:55.203Z,2.70
2018-09-01T03:11:23.431Z,3.07
2018-09-01T03:13:51.672Z,2.80
2018-09-01T03:16:19.902Z,2.70
2018-09-01T03:18:48.152Z,2.60
2018-09-01T03:21:16.368Z,2.83
2018-09-01T03:23:44.603Z,2.93
2018-09-01T03:26:12.802Z,2.67
2018-09-01T03:28:41.031Z,2.50
2018-09-01T03:31:10.132Z,3.03
2018-09-01T03:33:38.356Z,2.73
2018-09-01T03:36:06.569Z,2.70
2018-09-01T03:38:34.786Z,2.90
2018-09-01T03:41:03.000Z,2.60
2018-09-01T03:43:31.235Z,2.60
2018-09-01T03:45:59.449Z,2.93
2018-09-01T03:48:28.286Z,2.87
2018-09-01T03:50:56.555Z,3.10
2018-09-01T03:53:24.791Z,3.00
2018-09-01T03:55:53.034Z,3.20
2018-09-01T03:58:21.256Z,3.37
2018-09-01T04:00:49.482Z,3.07
2018-09-01T04:03:17.725Z,2.80
2018-09-01T04:05:45.936Z,2.70
2018-09-01T04:08:14.160Z,2.70
2018-09-01T04:10:42.412Z,3.00
2018-09-01T04:13:10.635Z,3.13
2018-09-01T04:15:38.859Z,3.03
2018-09-01T04:18:07.085Z,2.83
2018-09-01T04:20:35.333Z,2.77
2018-09-01T04:23:03.598Z,2.70
2018-09-01T04:25:31.846Z,3.10
2018-09-01T04:28:00.053Z,3.00
2018-09-01T04:30:28.302Z,2.90
2018-09-01T04:32:56.548Z,3.00
2018-09-01T04:35:24.794Z,3.27
2018-09-01T04:37:53.120Z,3.40
2018-09-01T04:40:21.356Z,3.10
2018-09-01T04:42:49.576Z,3.10
2018-09-01T04:45:17.945Z,2.70
2018-09-01T04:47:46.144Z,2.87
2018-09-01T04:50:15.724Z,2.97
2018-09-01T04:52:44.144Z,3.07
2018-09-01T04:55:12.377Z,3.10
2018-09-01T04:57:40.604Z,2.80
2018-09-01T05:00:09.008Z,2.70
2018-09-01T05:02:37.253Z,3.10
2018-09-01T05:05:05.516Z,3.03
2018-09-01T05:07:33.745Z,3.00
2018-09-01T05:10:02.011Z,3.07
2018-09-01T05:12:30.252Z,2.60
2018-09-01T05:14:58.509Z,3.13
2018-09-01T05:17:26.757Z,2.80
2018-09-01T05:19:54.992Z,3.40
2018-09-01T05:22:23.198Z,3.20
2018-09-01T05:24:51.488Z,2.80
2018-09-01T05:27:19.717Z,3.07
2018-09-01T05:29:47.957Z,3.03
2018-09-01T05:32:16.189Z,3.20
2018-09-01T05:34:44.420Z,2.90
2018-09-01T05:37:12.664Z,3.33
2018-09-01T05:39:40.921Z,3.10
2018-09-01T05:42:09.265Z,3.07
2018-09-01T05:44:37.556Z,3.43
2018-09-01T05:47:05.875Z,3.37
2018-09-01T05:49:34.149Z,3.20
2018-09-01T05:52:02.418Z,3.17
2018-09-01T05:54:30.893Z,3.40
2018-09-01T05:56:59.160Z,3.27
2018-09-01T05:59:27.415Z,3.20
2018-09-01T06:01:55.633Z,3.10
2018-09-01T06:04:23.970Z,3.73
2018-09-01T06:06:52.193Z,3.63
2018-09-01T06:09:20.472Z,3.60
2018-09-01T06:11:48.984Z,3.50
2018-09-01T06:14:17.216Z,3.50
2018-09-01T06:16:45.474Z,3.30
2018-09-01T06:19:13.712Z,3.50
2018-09-01T06:21:43.004Z,3.20
2018-09-01T06:24:11.226Z,3.80
2018-09-01T06:26:39.457Z,3.30
2018-09-01T06:29:12.768Z,3.70
2018-09-01T06:31:44.133Z,3.63
2018-09-01T06:34:12.575Z,3.70
2018-09-01T06:36:40.961Z,3.80
2018-09-01T06:39:09.628Z,3.43
2018-09-01T06:41:38.041Z,3.70
2018-09-01T06:44:07.017Z,3.87
2018-09-01T06:46:35.256Z,3.53
2018-09-01T06:49:03.481Z,4.20
2018-09-01T06:51:31.738Z,3.70
2018-09-01T06:54:00.009Z,4.33
2018-09-01T06:56:28.257Z,3.93
2018-09-01T06:58:56.500Z,3.83
2018-09-01T07:01:24.748Z,4.00
2018-09-01T07:03:52.938Z,3.60
2018-09-01T07:06:21.245Z,4.07
2018-09-01T07:08:49.551Z,4.03
2018-09-01T07:11:17.769Z,4.03
2018-09-01T07:13:46.049Z,3.93
2018-09-01T07:16:14.271Z,4.40
2018-09-01T07:18:42.513Z,3.53
2018-09-01T07:21:10.763Z,3.80
2018-09-01T07:23:38.983Z,4.20
2018-09-01T07:26:07.218Z,3.67
2018-09-01T07:28:35.424Z,3.20
2018-09-01T07:31:04.033Z,3.27
2018-09-01T07:33:32.088Z,3.20
2018-09-01T07:36:00.336Z,3.50
2018-09-01T07:38:28.569Z,3.40
2018-09-01T07:40:56.827Z,3.00
2018-09-01T07:43:25.039Z,3.33
2018-09-01T07:45:53.304Z,3.15
2018-09-01T07:48:21.510Z,3.20
2018-09-01T07:50:49.747Z,3.65
2018-09-01T07:53:17.972Z,2.75
2018-09-01T07:55:46.205Z,2.80
2018-09-01T07:58:14.441Z,2.90
2018-09-01T08:00:42.689Z,3.47
2018-09-01T08:03:10.910Z,3.27
2018-09-01T08:05:39.171Z,3.17
2018-09-01T08:08:07.375Z,2.87
2018-09-01T08:10:35.602Z,2.65
2018-09-01T08:13:03.819Z,3.33
2018-09-01T08:15:32.109Z,3.50
2018-09-01T08:18:00.353Z,2.90
2018-09-01T08:20:28.660Z,3.62
2018-09-01T08:22:56.905Z,3.37
2018-09-01T08:25:25.161Z,3.35
2018-09-01T08:27:53.432Z,2.80
2018-09-01T08:30:21.724Z,3.33
2018-09-01T08:32:50.502Z,3.02
2018-09-01T08:35:18.792Z,2.60
2018-09-01T08:37:47.096Z,2.93
2018-09-01T08:40:15.352Z,3.10
2018-09-01T08:42:43.680Z,3.10
2018-09-01T08:45:12.034Z,2.87
2018-09-01T08:47:40.413Z,3.40
2018-09-01T08:50:08.695Z,2.47
2018-09-01T08:52:36.951Z,2.70
2018-09-01T08:55:05.161Z,2.92
2018-09-01T08:57:33.404Z,2.72
2018-09-01T09:00:01.637Z,2.65
2018-09-01T09:02:29.915Z,2.70
2018-09-01T09:04:58.162Z,2.65
2018-09-01T09:07:26.394Z,2.67
2018-09-01T09:09:54.620Z,3.00
2018-09-01T09:12:22.849Z,2.80
2018-09-01T09:14:51.076Z,2.87
2018-09-01T09:17:19.348Z,2.95
2018-09-01T09:19:47.636Z,2.70
2018-09-01T09:22:15.886Z,2.77
2018-09-01T09:24:44.109Z,3.15
2018-09-01T09:27:12.383Z,2.77
2018-09-01T09:29:40.689Z,3.30
2018-09-01T09:32:08.936Z,3.00
2018-09-01T09:34:37.170Z,2.80
2018-09-01T09:37:05.458Z,3.20
2018-09-01T09:39:33.674Z,2.80
2018-09-01T09:42:01.958Z,2.87
2018-09-01T09:44:30.196Z,2.80
2018-09-01T09:46:58.448Z,2.80
2018-09-01T09:49:26.692Z,2.97
2018-09-01T09:51:54.968Z,3.07
2018-09-01T09:54:23.212Z,2.90
2018-09-01T09:56:51.456Z,2.70
2018-09-01T09:59:19.661Z,2.90
2018-09-01T10:01:47.887Z,3.10
2018-09-01T10:04:16.116Z,2.60
2018-09-01T10:06:44.368Z,2.97
2018-09-01T10:09:14.015Z,2.93
2018-09-01T10:11:42.992Z,3.40
2018-09-01T10:14:11.684Z,3.00
2018-09-01T10:16:40.392Z,2.70
2018-09-01T10:19:08.671Z,3.10
2018-09-01T10:21:36.875Z,3.10
2018-09-01T10:24:05.089Z,2.47
2018-09-01T10:26:33.325Z,2.80
2018-09-01T10:29:01.582Z,3.10
2018-09-01T10:31:29.823Z,3.03
2018-09-01T10:33:58.060Z,3.07
2018-09-01T10:36:26.288Z,2.97
2018-09-01T10:38:54.540Z,3.10
2018-09-01T10:41:22.882Z,3.43
2018-09-01T10:43:51.143Z,3.30
2018-09-01T10:46:19.412Z,3.13
2018-09-01T10:48:47.640Z,3.10
2018-09-01T10:51:16.237Z,3.00
2018-09-01T10:53:44.459Z,3.00
2018-09-01T10:56:12.660Z,3.20
2018-09-01T10:58:40.913Z,3.10
2018-09-01T11:01:09.173Z,3.07
2018-09-01T11:03:37.457Z,2.70
2018-09-01T11:06:05.727Z,2.83
2018-09-01T11:08:33.954Z,3.07
2018-09-01T11:11:02.190Z,3.10
2018-09-01T11:13:30.423Z,2.70
2018-09-01T11:15:58.627Z,3.30
2018-09-01T11:18:26.873Z,3.20
2018-09-01T11:20:55.169Z,3.60
2018-09-01T11:23:23.353Z,3.53
2018-09-01T11:25:51.605Z,3.47
2018-09-01T11:28:19.914Z,3.13
2018-09-01T11:30:48.132Z,3.40
2018-09-01T11:33:16.373Z,3.20
2018-09-01T11:35:44.638Z,3.70
2018-09-01T11:38:12.885Z,3.53
2018-09-01T11:40:41.151Z,3.10
2018-09-01T11:43:09.616Z,3.53
2018-09-01T11:45:37.712Z,3.00
2018-09-01T11:48:06.293Z,3.60
2018-09-01T11:50:34.515Z,3.17
2018-09-01T11:53:02.781Z,3.47
2018-09-01T11:55:31.034Z,3.30
2018-09-01T11:57:59.379Z,3.55
2018-09-01T12:00:27.618Z,3.40
2018-09-01T12:02:55.849Z,3.77
2018-09-01T12:05:24.105Z,3.50
2018-09-01T12:07:52.312Z,3.37
2018-09-01T12:10:20.579Z,3.40
2018-09-01T12:12:48.802Z,3.85
2018-09-01T12:15:17.094Z,3.70
2018-09-01T12:17:45.452Z,3.63
2018-09-01T12:20:13.702Z,3.13
2018-09-01T12:22:41.929Z,3.43
2018-09-01T12:25:10.144Z,3.67
2018-09-01T12:27:38.401Z,3.43
2018-09-01T12:30:06.708Z,3.47
2018-09-01T12:32:34.929Z,3.83
2018-09-01T12:35:03.171Z,3.40
2018-09-01T12:37:31.390Z,3.57
2018-09-01T12:39:59.602Z,3.67
2018-09-01T12:42:27.851Z,3.43
2018-09-01T12:44:56.089Z,3.30
2018-09-01T12:47:24.302Z,4.00
2018-09-01T12:49:52.576Z,3.80
2018-09-01T12:52:20.798Z,3.73
2018-09-01T12:54:49.049Z,3.63
2018-09-01T12:57:17.310Z,3.60
2018-09-01T12:59:45.554Z,3.90
2018-09-01T13:02:18.031Z,4.57
2018-09-01T13:04:46.273Z,4.70
2018-09-01T13:07:14.489Z,3.80
2018-09-01T13:09:42.718Z,4.00
2018-09-01T13:12:11.016Z,3.67
2018-09-01T13:14:39.261Z,3.73
2018-09-01T13:17:07.446Z,3.87
2018-09-01T13:19:35.752Z,3.70
2018-09-01T13:22:03.961Z,3.80
2018-09-01T13:24:32.197Z,4.00
2018-09-01T13:27:00.410Z,4.23
2018-09-01T13:29:28.641Z,3.77
2018-09-01T13:31:56.847Z,3.70
2018-09-01T13:34:25.116Z,4.07
2018-09-01T13:36:53.304Z,3.60
2018-09-01T13:39:21.541Z,3.20
2018-09-01T13:41:49.793Z,5.03
2018-09-01T13:44:18.115Z,4.30
2018-09-01T13:46:46.385Z,4.90
2018-09-01T13:49:14.587Z,4.50
2018-09-01T13:51:42.841Z,4.00
2018-09-01T13:54:11.561Z,3.77
2018-09-01T13:56:39.795Z,3.90
2018-09-01T13:59:08.005Z,4.20
2018-09-01T14:01:36.233Z,3.90
2018-09-01T14:04:04.453Z,4.10
2018-09-01T14:06:32.737Z,3.87
2018-09-01T14:09:00.974Z,4.03
2018-09-01T14:11:29.197Z,3.90
2018-09-01T14:13:57.412Z,3.70
2018-09-01T14:16:25.781Z,4.23
2018-09-01T14:18:54.141Z,3.93
2018-09-01T14:21:22.396Z,4.20
2018-09-01T14:23:50.608Z,3.67
2018-09-01T14:26:18.878Z,3.60
2018-09-01T14:28:47.103Z,3.60
2018-09-01T14:31:15.353Z,3.90
2018-09-01T14:33:43.604Z,4.03
2018-09-01T14:36:11.870Z,3.80
2018-09-01T14:38:40.143Z,3.90
2018-09-01T14:41:08.385Z,3.93
2018-09-01T14:43:36.641Z,4.20
2018-09-01T14:46:04.883Z,3.97
2018-09-01T14:48:33.114Z,3.97
2018-09-01T14:51:01.368Z,3.63
2018-09-01T14:53:29.611Z,3.97
2018-09-01T14:55:57.837Z,3.83
2018-09-01T14:58:26.276Z,4.07
2018-09-01T15:00:54.487Z,3.97
2018-09-01T15:03:22.705Z,4.07
2018-09-01T15:05:50.954Z,3.93
2018-09-01T15:08:19.179Z,4.47
2018-09-01T15:10:47.468Z,4.23
2018-09-01T15:13:15.711Z,3.97
2018-09-01T15:15:43.948Z,3.73
2018-09-01T15:18:12.301Z,4.27
2018-09-01T15:20:40.572Z,3.87
2018-09-01T15:23:08.802Z,4.57
2018-09-01T15:25:37.077Z,4.80
2018-09-01T15:28:05.408Z,4.57
2018-09-01T15:30:33.640Z,4.23
2018-09-01T15:33:01.894Z,3.87
2018-09-01T15:35:30.228Z,4.00
2018-09-01T15:37:58.394Z,3.73
2018-09-01T15:40:26.634Z,3.90
2018-09-01T15:42:54.890Z,4.23
2018-09-01T15:45:23.170Z,3.90
2018-09-01T15:47:51.393Z,4.00
2018-09-01T15:50:19.640Z,3.60
2018-09-01T15:52:47.843Z,4.33
2018-09-01T15:55:16.047Z,3.80
2018-09-01T15:57:44.272Z,4.10
2018-09-01T16:00:12.499Z,3.53
2018-09-01T16:02:40.760Z,3.70
2018-09-01T16:05:09.377Z,3.90
2018-09-01T16:07:37.609Z,4.00
2018-09-01T16:10:05.913Z,3.73
2018-09-01T16:12:34.169Z,4.23
2018-09-01T16:15:02.423Z,3.97
2018-09-01T16:17:30.817Z,3.47
2018-09-01T16:19:59.043Z,3.63
2018-09-01T16:22:27.257Z,3.80
2018-09-01T16:24:55.477Z,3.50
2018-09-01T16:27:23.734Z,3.50
2018-09-01T16:29:51.952Z,3.57
2018-09-01T16:32:20.210Z,3.03
2018-09-01T16:34:48.437Z,3.43
2018-09-01T16:37:16.676Z,3.50
2018-09-01T16:39:44.933Z,2.70
2018-09-01T16:42:13.160Z,3.00
2018-09-01T16:44:41.392Z,3.23
2018-09-01T16:47:09.721Z,2.60
2018-09-01T16:49:38.006Z,2.70
2018-09-01T16:52:06.329Z,2.70
2018-09-01T16:54:34.574Z,2.73
2018-09-01T16:57:02.824Z,2.50
2018-09-01T16:59:31.077Z,2.70
2018-09-01T17:01:59.325Z,2.60
2018-09-01T17:04:27.531Z,2.57
2018-09-01T17:06:55.762Z,2.57
2018-09-01T17:09:24.002Z,2.50
2018-09-01T17:11:52.243Z,2.70
2018-09-01T17:14:20.492Z,2.27
2018-09-01T17:16:48.728Z,2.50
2018-09-01T17:19:16.999Z,2.60
2018-09-01T17:21:45.390Z,2.60
2018-09-01T17:24:13.613Z,2.73
2018-09-01T17:26:41.853Z,2.30
2018-09-01T17:29:10.083Z,2.40
2018-09-01T17:31:38.427Z,2.30
2018-09-01T17:34:06.652Z,2.70
2018-09-01T17:36:34.884Z,2.43
2018-09-01T17:39:04.691Z,2.20
2018-09-01T17:41:32.984Z,2.60
2018-09-01T17:44:01.224Z,2.43
2018-09-01T17:46:29.557Z,2.70
2018-09-01T17:48:57.800Z,2.40
2018-09-01T17:51:26.039Z,2.37
2018-09-01T17:53:54.271Z,2.60
2018-09-01T17:56:22.516Z,2.57
2018-09-01T17:58:50.733Z,2.53
2018-09-01T18:01:20.393Z,2.57
2018-09-01T18:03:48.640Z,2.30
2018-09-01T18:06:16.864Z,2.30
2018-09-01T18:08:45.152Z,2.80
2018-09-01T18:11:13.436Z,2.30
2018-09-01T18:13:41.773Z,2.70
2018-09-01T18:16:10.005Z,2.57
2018-09-01T18:18:38.273Z,2.60
2018-09-01T18:21:06.646Z,2.60
2018-09-01T18:23:34.873Z,2.43
2018-09-01T18:26:03.098Z,2.47
2018-09-01T18:28:31.362Z,2.47
2018-09-01T18:30:59.696Z,2.53
2018-09-01T18:33:27.934Z,2.30
2018-09-01T18:35:56.318Z,2.60
2018-09-01T18:38:24.420Z,2.40
2018-09-01T18:40:52.719Z,2.47
2018-09-01T18:43:20.936Z,2.63
2018-09-01T18:45:49.152Z,2.30
2018-09-01T18:48:17.372Z,2.60
2018-09-01T18:50:45.607Z,2.97
2018-09-01T18:53:13.829Z,2.70
2018-09-01T18:55:42.174Z,2.93
2018-09-01T18:58:10.402Z,2.70
2018-09-01T19:00:38.629Z,2.83
2018-09-01T19:03:06.964Z,2.70
2018-09-01T19:05:35.274Z,2.63
2018-09-01T19:08:03.612Z,2.27
2018-09-01T19:10:31.823Z,3.00
2018-09-01T19:13:00.049Z,2.70
2018-09-01T19:15:28.301Z,2.47
2018-09-01T19:17:56.551Z,3.17
2018-09-01T19:20:24.812Z,2.57
2018-09-01T19:22:53.101Z,3.03
2018-09-01T19:25:21.296Z,2.50
2018-09-01T19:27:49.832Z,2.80
2018-09-01T19:30:18.060Z,2.67
2018-09-01T19:32:46.347Z,2.57
2018-09-01T19:35:14.537Z,2.53
2018-09-01T19:37:42.789Z,2.50
2018-09-01T19:40:11.012Z,2.83
2018-09-01T19:42:39.282Z,2.47
2018-09-01T19:45:07.591Z,2.77
2018-09-01T19:47:35.853Z,2.83
2018-09-01T19:50:04.927Z,2.83
2018-09-01T19:52:33.163Z,2.50
2018-09-01T19:55:01.409Z,2.70
2018-09-01T19:57:29.692Z,2.63
2018-09-01T19:59:57.915Z,2.47
2018-09-01T20:02:26.136Z,2.63
2018-09-01T20:04:54.419Z,2.80
2018-09-01T20:07:22.607Z,2.83
2018-09-01T20:09:50.860Z,2.73
2018-09-01T20:12:19.091Z,2.50
2018-09-01T20:14:47.332Z,2.70
2018-09-01T20:17:15.590Z,3.10
2018-09-01T20:19:43.846Z,2.90
2018-09-01T20:22:12.080Z,2.90
2018-09-01T20:24:40.329Z,3.47
2018-09-01T20:27:08.565Z,3.30
2018-09-01T20:29:36.829Z,3.00
2018-09-01T20:32:05.082Z,2.73
2018-09-01T20:34:33.346Z,3.07
2018-09-01T20:37:01.608Z,3.30
2018-09-01T20:39:29.846Z,3.70
2018-09-01T20:41:58.088Z,4.00
2018-09-01T20:44:26.336Z,3.60
2018-09-01T20:46:54.565Z,3.80
2018-09-01T20:49:22.796Z,4.07
2018-09-01T20:51:51.061Z,4.13
2018-09-01T20:54:19.297Z,4.00
2018-09-01T20:56:49.518Z,4.40
2018-09-01T20:59:17.764Z,4.50
2018-09-01T21:01:46.009Z,4.90
2018-09-01T21:04:14.296Z,5.07
2018-09-01T21:06:42.620Z,5.60
2018-09-01T21:09:11.471Z,4.93
2018-09-01T21:11:40.339Z,5.03
2018-09-01T21:14:08.574Z,5.10
2018-09-01T21:16:36.800Z,3.80
2018-09-01T21:19:05.751Z,4.40
2018-09-01T21:21:33.955Z,4.43
2018-09-01T21:24:02.334Z,4.00
2018-09-01T21:26:30.609Z,3.97
2018-09-01T21:28:58.836Z,3.77
2018-09-01T21:31:27.059Z,3.90
2018-09-01T21:33:55.308Z,4.90
2018-09-01T21:36:23.801Z,4.00
2018-09-01T21:38:52.040Z,5.07
2018-09-01T21:41:20.268Z,5.83
2018-09-01T21:43:49.046Z,6.20
2018-09-01T21:46:17.319Z,5.93
2018-09-01T21:48:45.696Z,4.90
2018-09-01T21:51:13.994Z,4.97
2018-09-01T21:53:42.219Z,5.43
2018-09-01T21:56:10.468Z,4.60
2018-09-01T21:58:38.693Z,4.27
2018-09-01T22:01:12.242Z,4.40
2018-09-01T22:03:45.737Z,4.27
2018-09-01T22:06:13.993Z,4.23
2018-09-01T22:08:42.189Z,4.23
2018-09-01T22:11:10.445Z,4.47
2018-09-01T22:13:38.693Z,4.47
2018-09-01T22:16:06.925Z,4.20
2018-09-01T22:18:35.239Z,4.60
2018-09-01T22:21:03.545Z,4.53
2018-09-01T22:23:31.755Z,4.50
2018-09-01T22:26:00.024Z,5.10
2018-09-01T22:28:28.236Z,4.63
2018-09-01T22:30:56.471Z,4.57
2018-09-01T22:33:24.992Z,5.60
2018-09-01T22:35:53.267Z,4.80
2018-09-01T22:38:21.468Z,5.00
2018-09-01T22:40:49.688Z,5.13
2018-09-01T22:43:17.900Z,5.03
2018-09-01T22:45:46.141Z,5.40
2018-09-01T22:48:14.397Z,5.60
2018-09-01T22:50:42.679Z,5.37
2018-09-01T22:53:10.889Z,5.03
2018-09-01T22:55:39.139Z,5.40
2018-09-01T22:58:07.350Z,4.87
2018-09-01T23:00:35.601Z,5.00
2018-09-01T23:03:03.870Z,4.47
2018-09-01T23:05:32.157Z,4.40
2018-09-01T23:08:00.357Z,4.53
2018-09-01T23:10:28.612Z,4.73
2018-09-01T23:12:56.881Z,4.27
2018-09-01T23:15:25.124Z,5.13
2018-09-01T23:17:53.332Z,4.80
2018-09-01T23:20:21.626Z,5.10
2018-09-01T23:22:49.843Z,4.50
2018-09-01T23:25:18.094Z,4.93
2018-09-01T23:27:46.389Z,4.73
2018-09-01T23:30:14.632Z,4.73
2018-09-01T23:32:42.966Z,4.77
2018-09-01T23:35:11.245Z,5.00
2018-09-01T23:37:39.491Z,4.60
2018-09-01T23:40:07.713Z,4.43
2018-09-01T23:42:35.934Z,4.70
2018-09-01T23:45:04.313Z,5.20
2018-09-01T23:47:32.548Z,4.27
2018-09-01T23:50:00.781Z,4.50
2018-09-01T23:52:29.024Z,4.60
2018-09-01T23:54:57.253Z,4.47
2018-09-01T23:57:25.501Z,4.30
2018-09-01T23:59:53.712Z,4.63
